Time;durP1;ratioP1;P1;durP2;ratioP2;P2;SDS_P1;SDS_P2;PMS_P1;PMS_P2;Temp;Humidity;BMP_temperature;BMP_pressure;BME280_temperature;BME280_humidity;BME280_pressure;Samples;Min_cycle;Max_cycle;Signal;HPM_P1;HPM_P2
2021/05/11 00:01:26;;;;;;;;;;;;;;;15.04;100.00;100120.41;5072798;28;19928;-72
2021/05/11 00:03:52;;;;;;;;;;;;;;;15.10;100.00;100121.63;5071605;28;19960;-71
2021/05/11 00:06:18;;;;;;;;;;;;;;;15.14;100.00;100116.66;5071803;28;19963;-71
2021/05/11 00:08:45;;;;;;;;;;;;;;;15.17;100.00;100110.88;5072049;28;19921;-71
2021/05/11 00:11:11;;;;;;;;;;;;;;;15.20;100.00;100105.91;5072441;28;20300;-72
2021/05/11 00:13:36;;;;;;;;;;;;;;;15.21;100.00;100109.50;5072242;28;19966;-71
2021/05/11 00:16:02;;;;;;;;;;;;;;;15.20;100.00;100103.16;5054164;28;19924;-71
2021/05/11 00:18:28;;;;;;;;;;;;;;;15.27;100.00;100107.97;5072350;28;20393;-71
2021/05/11 00:20:54;;;;;;;;;;;;;;;15.29;100.00;100105.94;5071970;28;19974;-71
2021/05/11 00:23:20;;;;;;;;;;;;;;;15.31;100.00;100109.34;5072137;28;20315;-72
2021/05/11 00:25:46;;;;;;;;;;;;;;;15.30;100.00;100100.28;5053948;28;20378;-71
2021/05/11 00:28:12;;;;;;;;;;;;;;;15.31;100.00;100104.75;5069098;28;19920;-73
2021/05/11 00:30:38;;;;;;;;;;;;;;;15.29;100.00;100097.72;5072089;28;19927;-71
2021/05/11 00:33:04;;;;;;;;;;;;;;;15.30;100.00;100099.41;5053846;28;19920;-71
2021/05/11 00:35:30;;;;;;;;;;;;;;;15.25;100.00;100090.91;5071980;28;19971;-72
2021/05/11 00:37:56;;;;;;;;;;;;;;;15.22;100.00;100087.47;5071767;28;19920;-71
2021/05/11 00:40:21;;;;;;;;;;;;;;;15.19;100.00;100092.41;5071870;28;20334;-72
2021/05/11 00:42:48;;;;;;;;;;;;;;;15.16;100.00;100100.97;5071776;28;19920;-71
2021/05/11 00:45:14;;;;;;;;;;;;;;;15.15;100.00;100091.03;5071314;28;19931;-71
2021/05/11 00:47:40;;;;;;;;;;;;;;;15.20;100.00;100092.25;5071556;28;20007;-72
2021/05/11 00:50:06;;;;;;;;;;;;;;;15.19;100.00;100087.81;5071734;28;19921;-72
2021/05/11 00:52:33;;;;;;;;;;;;;;;15.20;100.00;100083.19;5071644;28;19920;-71
2021/05/11 00:54:59;;;;;;;;;;;;;;;15.17;100.00;100084.38;5071557;28;19963;-72
2021/05/11 00:57:25;;;;;;;;;;;;;;;15.16;100.00;100081.81;5071109;28;20011;-72
2021/05/11 00:59:54;;;;;;;;;;;;;;;15.17;100.00;100080.81;5071187;28;20210;-71
2021/05/11 01:02:19;;;;;;;;;;;;;;;15.10;100.00;100082.50;5071442;28;20273;-72
2021/05/11 01:04:45;;;;;;;;;;;;;;;15.04;100.00;100076.69;5071323;28;19987;-71
2021/05/11 01:07:11;;;;;;;;;;;;;;;15.07;100.00;100080.97;5071528;28;20005;-71
2021/05/11 01:09:37;;;;;;;;;;;;;;;15.03;100.00;100071.38;5071315;28;19921;-72
2021/05/11 01:12:03;;;;;;;;;;;;;;;14.99;100.00;100075.50;5071691;28;20359;-72
2021/05/11 01:14:29;;;;;;;;;;;;;;;14.97;100.00;100066.63;5071013;28;19921;-72
2021/05/11 01:16:58;;;;;;;;;;;;;;;14.96;100.00;100073.94;5070953;28;19924;-71
2021/05/11 01:19:26;;;;;;;;;;;;;;;14.91;100.00;100068.13;5071215;28;19963;-71
2021/05/11 01:21:58;;;;;;;;;;;;;;;14.86;100.00;100060.44;5052994;28;20387;-71
2021/05/11 01:24:27;;;;;;;;;;;;;;;14.83;100.00;100049.88;5071250;28;19920;-71
2021/05/11 01:26:57;;;;;;;;;;;;;;;14.81;100.00;100056.53;5070851;28;19998;-72
2021/05/11 01:29:40;;;;;;;;;;;;;;;14.76;100.00;100048.81;5070862;28;19958;-71
2021/05/11 01:46:29;;;;;;;;;;;;;;;14.56;100.00;100027.25;5070750;28;19967;-72
2021/05/11 01:49:01;;;;;;;;;;;;;;;14.48;100.00;100029.94;5071032;28;20142;-72
2021/05/11 01:51:44;;;;;;;;;;;;;;;14.45;100.00;100024.84;5070878;28;19921;-72
2021/05/11 01:54:31;;;;;;;;;;;;;;;14.40;100.00;100027.22;5070720;28;20386;-71
2021/05/11 02:11:12;;;;;;;;;;;;;;;14.26;100.00;100014.19;5070610;28;19925;-71
2021/05/11 02:24:34;;;;;;;;;;;;;;;14.10;100.00;99998.66;5070557;28;19921;-72
2021/05/11 02:27:00;;;;;;;;;;;;;;;14.07;100.00;99997.09;5070257;28;20241;-71
2021/05/11 02:29:27;;;;;;;;;;;;;;;14.04;100.00;100002.88;5074136;28;19920;-71
2021/05/11 02:31:53;;;;;;;;;;;;;;;14.03;100.00;99999.28;5074221;28;20383;-71
2021/05/11 02:34:18;;;;;;;;;;;;;;;14.01;100.00;99998.59;5074413;28;19921;-71
2021/05/11 02:36:44;;;;;;;;;;;;;;;13.98;100.00;99990.75;5074297;28;19944;-71
2021/05/11 02:39:10;;;;;;;;;;;;;;;13.93;100.00;99989.53;5070874;28;19920;-71
2021/05/11 02:41:36;;;;;;;;;;;;;;;13.84;100.00;99996.81;5074233;28;19943;-71
2021/05/11 02:44:02;;;;;;;;;;;;;;;13.76;100.00;99999.50;5056043;28;19920;-72
2021/05/11 02:46:28;;;;;;;;;;;;;;;13.75;100.00;100012.31;5074075;28;19927;-71
2021/05/11 02:48:56;;;;;;;;;;;;;;;13.70;100.00;100003.75;5073629;28;19943;-71
2021/05/11 02:51:22;;;;;;;;;;;;;;;13.66;100.00;100005.94;5073679;28;19924;-71
2021/05/11 02:53:47;;;;;;;;;;;;;;;13.70;100.00;100003.75;5073913;28;19920;-71
2021/05/11 02:56:13;;;;;;;;;;;;;;;13.74;100.00;99999.69;5073504;28;19962;-71
2021/05/11 02:58:40;;;;;;;;;;;;;;;13.72;100.00;100001.69;5074029;28;19920;-71
2021/05/11 03:01:06;;;;;;;;;;;;;;;13.68;100.00;100006.66;5073843;28;20433;-71
2021/05/11 03:03:32;;;;;;;;;;;;;;;13.64;100.00;100004.41;5073615;28;19924;-71
2021/05/11 03:05:58;;;;;;;;;;;;;;;13.63;100.00;100003.56;5073242;28;20017;-71
2021/05/11 03:08:24;;;;;;;;;;;;;;;13.61;100.00;100004.72;5073413;28;19931;-71
2021/05/11 03:10:50;;;;;;;;;;;;;;;13.56;100.00;100000.63;5073575;28;19924;-71
2021/05/11 03:13:15;;;;;;;;;;;;;;;13.54;100.00;99999.06;5073389;28;19924;-71
2021/05/11 03:15:41;;;;;;;;;;;;;;;13.50;100.00;100008.59;5073397;28;20280;-71
2021/05/11 03:18:07;;;;;;;;;;;;;;;13.45;100.00;100009.06;5055635;28;19921;-72
2021/05/11 03:20:34;;;;;;;;;;;;;;;13.40;100.00;100014.13;5073257;28;19921;-72
2021/05/11 03:23:01;;;;;;;;;;;;;;;13.37;100.00;100009.88;5073083;28;19924;-71
2021/05/11 03:25:27;;;;;;;;;;;;;;;13.33;100.00;100013.88;5073070;28;20289;-71
2021/05/11 03:27:53;;;;;;;;;;;;;;;13.29;100.00;100014.38;5073094;28;19920;-71
2021/05/11 03:30:18;;;;;;;;;;;;;;;13.27;100.00;100014.53;5071934;28;19973;-71
2021/05/11 03:32:44;;;;;;;;;;;;;;;13.24;100.00;100009.38;5054342;28;19943;-71
2021/05/11 03:35:10;;;;;;;;;;;;;;;13.27;100.00;100014.53;5053362;28;19921;-71
2021/05/11 03:37:37;;;;;;;;;;;;;;;13.29;100.00;100012.50;5052666;28;19960;-71
2021/05/11 03:40:03;;;;;;;;;;;;;;;13.31;100.00;100015.94;5051827;28;20458;-71
2021/05/11 03:42:32;;;;;;;;;;;;;;;13.32;100.00;100008.59;5070543;28;19927;-71
2021/05/11 03:45:01;;;;;;;;;;;;;;;13.25;100.00;100007.53;5054826;28;19926;-71
2021/05/11 03:47:28;;;;;;;;;;;;;;;13.22;100.00;99998.66;5069251;28;19920;-72
2021/05/11 03:49:54;;;;;;;;;;;;;;;13.21;100.00;99996.09;5072556;28;19920;-72
2021/05/11 03:52:20;;;;;;;;;;;;;;;13.21;100.00;99994.25;5040578;28;20359;-71
2021/05/11 03:54:46;;;;;;;;;;;;;;;13.20;100.00;99988.94;5055503;28;20445;-72
2021/05/11 03:57:12;;;;;;;;;;;;;;;13.18;100.00;99986.38;5052490;28;19924;-71
2021/05/11 03:59:38;;;;;;;;;;;;;;;13.19;100.00;99985.34;5064985;28;19921;-72
2021/05/11 04:02:04;;;;;;;;;;;;;;;13.28;100.00;99990.84;5072177;28;19927;-72
2021/05/11 04:04:30;;;;;;;;;;;;;;;13.30;100.00;99986.13;5070593;28;19928;-72
2021/05/11 04:06:56;;;;;;;;;;;;;;;13.31;100.00;99985.06;5070066;28;19925;-72
2021/05/11 04:09:27;;;;;;;;;;;;;;;13.33;100.00;99975.72;5072242;28;19931;-71
2021/05/11 04:12:11;;;;;;;;;;;;;;;13.33;100.00;99977.59;5064608;28;20434;-71
2021/05/11 04:17:17;;;;;;;;;;;;;;;13.36;100.00;99977.31;5046536;28;20031;-72
2021/05/11 04:19:43;;;;;;;;;;;;;;;13.37;100.00;99965.41;5051463;28;20387;-71
2021/05/11 04:22:08;;;;;;;;;;;;;;;13.39;100.00;99971.56;5053326;28;19920;-71
2021/05/11 04:24:34;;;;;;;;;;;;;;;13.46;100.00;99974.50;5051836;28;19990;-71
2021/05/11 04:27:01;;;;;;;;;;;;;;;13.54;100.00;99969.06;5052974;28;19925;-71
2021/05/11 04:29:28;;;;;;;;;;;;;;;13.56;100.00;99959.72;5070731;28;19924;-72
2021/05/11 04:31:53;;;;;;;;;;;;;;;13.64;100.00;99956.19;5066005;28;19921;-71
2021/05/11 04:34:19;;;;;;;;;;;;;;;13.72;100.00;99958.06;5054186;28;19928;-71
2021/05/11 04:36:45;;;;;;;;;;;;;;;13.77;100.00;99952.97;5055435;28;19921;-72
2021/05/11 04:39:11;;;;;;;;;;;;;;;13.86;100.00;99949.25;5056629;28;20422;-72
2021/05/11 04:41:37;;;;;;;;;;;;;;;13.94;100.00;99945.72;5051960;28;19921;-72
2021/05/11 04:44:05;;;;;;;;;;;;;;;14.05;100.00;99944.56;5059990;28;19920;-73
2021/05/11 04:46:41;;;;;;;;;;;;;;;14.17;100.00;99937.75;5069365;28;19928;-72
2021/05/11 04:49:06;;;;;;;;;;;;;;;14.23;100.00;99938.97;5051486;28;19921;-72
2021/05/11 04:51:32;;;;;;;;;;;;;;;14.42;100.00;99940.53;5052055;28;19957;-72
2021/05/11 04:53:58;;;;;;;;;;;;;;;14.55;100.00;99945.47;5051585;28;20431;-72
2021/05/11 04:56:24;;;;;;;;;;;;;;;14.75;100.00;99934.25;5051471;28;19924;-73
2021/05/11 04:58:50;;;;;;;;;;;;;;;14.91;100.00;99936.97;5069005;28;19926;-72
2021/05/11 05:01:16;;;;;;;;;;;;;;;15.06;100.00;99935.25;5054077;28;19921;-73
2021/05/11 05:03:46;;;;;;;;;;;;;;;15.26;100.00;99932.16;5051013;28;19986;-72
2021/05/11 05:06:12;;;;;;;;;;;;;;;15.46;100.00;99935.34;5052326;28;20402;-72
2021/05/11 05:08:38;;;;;;;;;;;;;;;15.64;100.00;99929.63;5051105;28;19920;-72
2021/05/11 05:11:03;;;;;;;;;;;;;;;15.83;100.00;99919.31;5065374;28;19920;-73
2021/05/11 05:13:29;;;;;;;;;;;;;;;15.94;100.00;99913.47;5070919;28;19971;-73
2021/05/11 05:15:56;;;;;;;;;;;;;;;16.10;100.00;99919.84;5062462;28;20330;-72
2021/05/11 05:18:23;;;;;;;;;;;;;;;16.23;100.00;99918.25;5034059;28;20011;-72
2021/05/11 05:20:50;;;;;;;;;;;;;;;16.35;100.00;99909.59;5051256;28;19963;-74
2021/05/11 05:23:17;;;;;;;;;;;;;;;16.59;100.00;99910.44;5063222;28;20082;-73
2021/05/11 05:25:46;;;;;;;;;;;;;;;16.70;100.00;99908.13;5071143;28;19924;-73
2021/05/11 05:28:13;;;;;;;;;;;;;;;16.80;100.00;99904.28;5051087;28;20407;-73
2021/05/11 05:30:39;;;;;;;;;;;;;;;16.87;100.00;99899.75;5067957;28;19940;-73
2021/05/11 05:33:05;;;;;;;;;;;;;;;17.03;100.00;99898.75;5055750;28;19920;-73
2021/05/11 05:35:32;;;;;;;;;;;;;;;17.31;100.00;99892.66;5051320;28;19920;-73
2021/05/11 05:37:58;;;;;;;;;;;;;;;17.46;100.00;99884.41;5070461;28;20181;-72
2021/05/11 05:40:23;;;;;;;;;;;;;;;17.49;100.00;99882.16;5071132;28;19925;-73
2021/05/11 05:42:50;;;;;;;;;;;;;;;17.74;100.00;99884.56;5062443;28;19935;-73
2021/05/11 05:45:16;;;;;;;;;;;;;;;18.03;100.00;99888.31;5076780;28;19920;-74
2021/05/11 05:47:50;;;;;;;;;;;;;;;18.34;100.00;99888.00;5061480;28;19974;-73
2021/05/11 05:50:17;;;;;;;;;;;;;;;18.83;100.00;99882.75;5070748;28;19950;-74
2021/05/11 05:52:44;;;;;;;;;;;;;;;19.12;100.00;99892.72;5069736;28;19977;-74
2021/05/11 05:55:12;;;;;;;;;;;;;;;19.30;100.00;99889.44;5070682;28;19920;-74
2021/05/11 05:57:37;;;;;;;;;;;;;;;19.65;100.00;99877.56;5068851;28;19920;-74
2021/05/11 06:00:04;;;;;;;;;;;;;;;19.95;100.00;99869.00;5070032;28;19931;-74
2021/05/11 06:02:43;;;;;;;;;;;;;;;20.48;100.00;99869.13;5068523;28;19922;-75
2021/05/11 06:05:10;;;;;;;;;;;;;;;20.74;100.00;99864.72;5063822;28;19927;-73
2021/05/11 06:07:35;;;;;;;;;;;;;;;21.15;100.00;99865.50;5061103;28;19955;-73
2021/05/11 06:10:02;;;;;;;;;;;;;;;21.47;100.00;99854.59;5055636;28;20327;-72
2021/05/11 06:12:33;;;;;;;;;;;;;;;21.64;100.00;99858.59;5070947;28;20014;-72
2021/05/11 06:17:02;;;;;;;;;;;;;;;21.83;100.00;99858.75;5058578;28;19920;-73
2021/05/11 06:17:47;;;;;;;;;;;;;;;22.06;100.00;99833.31;5054054;28;20016;-73
2021/05/11 06:20:14;;;;;;;;;;;;;;;22.59;100.00;99834.06;5062220;28;19932;-73
2021/05/11 06:22:40;;;;;;;;;;;;;;;22.70;100.00;99822.25;5066125;28;20008;-74
2021/05/11 06:25:07;;;;;;;;;;;;;;;22.78;100.00;99821.94;5036640;28;19928;-74
2021/05/11 06:27:33;;;;;;;;;;;;;;;22.88;98.94;99822.28;5053877;28;20369;-74
2021/05/11 06:29:59;;;;;;;;;;;;;;;23.47;97.45;99819.13;5068826;28;19928;-73
2021/05/11 06:32:25;;;;;;;;;;;;;;;23.80;96.27;99823.41;5055220;28;19920;-74
2021/05/11 06:34:53;;;;;;;;;;;;;;;23.98;92.43;99821.69;5074889;28;19920;-73
2021/05/11 06:37:19;;;;;;;;;;;;;;;24.19;87.93;99814.78;5088394;28;20032;-74
2021/05/11 06:39:48;;;;;;;;;;;;;;;23.68;89.72;99820.56;5054214;28;20383;-74
2021/05/11 06:42:16;;;;;;;;;;;;;;;23.58;92.33;99825.81;5055321;28;19921;-73
2021/05/11 06:44:56;;;;;;;;;;;;;;;23.48;90.84;99823.59;5053491;28;19925;-73
2021/05/11 06:47:30;;;;;;;;;;;;;;;24.05;90.13;99819.66;5064917;28;19925;-74
2021/05/11 06:50:25;;;;;;;;;;;;;;;24.40;85.60;99819.75;5073771;28;19934;-74
2021/05/11 06:52:57;;;;;;;;;;;;;;;24.53;86.55;99818.72;5059261;28;19921;-74
2021/05/11 06:55:22;;;;;;;;;;;;;;;24.49;85.24;99825.81;5053026;28;19971;-75
2021/05/11 06:57:49;;;;;;;;;;;;;;;24.32;86.37;99816.47;5072384;28;19924;-75
2021/05/11 07:00:15;;;;;;;;;;;;;;;24.06;90.44;99818.56;5064506;28;19952;-75
2021/05/11 07:02:41;;;;;;;;;;;;;;;23.77;89.09;99818.31;5066316;28;19965;-75
2021/05/11 07:05:07;;;;;;;;;;;;;;;24.01;94.91;99821.22;5065683;28;20403;-75
2021/05/11 07:07:35;;;;;;;;;;;;;;;24.29;89.47;99814.19;5061601;28;20388;-73
2021/05/11 07:10:10;;;;;;;;;;;;;;;24.94;89.02;99815.25;5079513;28;20215;-73
2021/05/11 07:15:21;;;;;;;;;;;;;;;25.42;81.18;99828.03;5052835;28;19921;-73
2021/05/11 07:17:47;;;;;;;;;;;;;;;25.77;81.90;99824.28;5070101;28;20454;-73
2021/05/11 07:20:13;;;;;;;;;;;;;;;26.26;75.36;99823.00;5093786;28;20015;-74
2021/05/11 07:22:39;;;;;;;;;;;;;;;26.02;74.63;99825.91;5083347;28;19920;-72
2021/05/11 07:25:08;;;;;;;;;;;;;;;25.98;78.67;99816.38;5072989;28;19920;-73
2021/05/11 07:27:51;;;;;;;;;;;;;;;26.26;76.25;99817.44;5071154;28;19920;-73
2021/05/11 07:30:25;;;;;;;;;;;;;;;26.22;72.61;99809.63;5072803;28;19920;-73
2021/05/11 07:32:52;;;;;;;;;;;;;;;27.10;70.40;99811.06;5044614;28;20299;-73
2021/05/11 07:35:18;;;;;;;;;;;;;;;27.00;68.07;99805.34;5053505;28;19925;-73
2021/05/11 07:37:43;;;;;;;;;;;;;;;28.02;66.93;99807.78;5061649;28;19972;-73
2021/05/11 07:40:10;;;;;;;;;;;;;;;27.89;62.65;99807.06;5086644;28;19928;-73
2021/05/11 07:42:36;;;;;;;;;;;;;;;27.79;65.61;99814.47;5055746;28;20450;-73
2021/05/11 07:45:03;;;;;;;;;;;;;;;27.16;69.01;99815.59;5052769;28;19928;-73
2021/05/11 07:47:35;;;;;;;;;;;;;;;26.00;75.01;99806.69;5061958;28;20353;-73
2021/05/11 08:15:00;;;;;;;;;;;;;;;28.02;64.69;99841.22;5051870;28;20268;-74
2021/05/11 08:17:28;;;;;;;;;;;;;;;27.88;66.24;99844.41;5046760;28;19927;-74
2021/05/11 08:22:49;;;;;;;;;;;;;;;28.56;62.47;99830.03;5051362;28;20379;-74
2021/05/11 08:27:59;;;;;;;;;;;;;;;28.90;62.21;99820.56;5074447;28;19925;-74
2021/05/11 08:30:26;;;;;;;;;;;;;;;28.14;60.45;99811.25;5054118;28;19974;-74
2021/05/11 08:32:52;;;;;;;;;;;;;;;27.67;65.48;99809.03;5053500;28;19990;-74
2021/05/11 08:35:18;;;;;;;;;;;;;;;27.53;66.55;99806.63;5091942;28;19927;-74
2021/05/11 08:37:44;;;;;;;;;;;;;;;28.01;65.10;99803.31;5083728;28;19924;-74
2021/05/11 08:40:11;;;;;;;;;;;;;;;28.84;62.09;99807.69;5048464;28;19968;-73
2021/05/11 08:42:37;;;;;;;;;;;;;;;29.71;59.30;99807.34;5051853;28;19924;-71
2021/05/11 08:45:04;;;;;;;;;;;;;;;30.59;57.44;99797.16;5052398;28;19924;-73
2021/05/11 08:47:30;;;;;;;;;;;;;;;31.25;50.54;99802.97;5061570;28;20424;-73
2021/05/11 08:49:56;;;;;;;;;;;;;;;31.81;51.19;99790.69;5078528;28;19920;-74
2021/05/11 08:52:27;;;;;;;;;;;;;;;31.88;49.71;99796.81;5051349;28;19924;-74
2021/05/11 08:55:08;;;;;;;;;;;;;;;30.96;47.90;99796.00;5045959;28;19928;-73
2021/05/11 09:08:47;;;;;;;;;;;;;;;32.46;46.97;99770.06;5067906;28;19971;-73
2021/05/11 09:23:32;;;;;;;;;;;;;;;32.56;44.65;99769.97;5070199;28;19920;-73
2021/05/11 09:25:35;;;;;;;;;;;;;;;32.50;48.19;99777.59;5051035;28;19921;-73
2021/05/11 09:28:16;;;;;;;;;;;;;;;32.55;45.80;99773.91;5050920;28;20361;-73
2021/05/11 09:30:55;;;;;;;;;;;;;;;32.92;43.63;99780.06;5079656;28;19934;-73
2021/05/11 09:33:26;;;;;;;;;;;;;;;33.16;42.83;99778.06;5072581;28;19920;-73
2021/05/11 09:55:43;;;;;;;;;;;;;;;31.47;44.25;99735.31;5051071;28;19920;-73
2021/05/11 09:58:22;;;;;;;;;;;;;;;30.75;48.72;99742.00;5059429;28;19943;-73
2021/05/11 10:32:41;;;;;;;;;;;;;;;32.95;42.60;99690.38;5050310;28;19924;-65
2021/05/11 10:38:51;;;;;;;;;;;;;;;33.80;39.16;99681.41;5049663;28;19924;-64
2021/05/11 10:41:24;;;;;;;;;;;;;;;33.77;38.75;99665.94;5050095;28;19939;-64
2021/05/11 10:46:49;;;;;;;;;;;;;;;34.06;39.98;99681.81;5045603;28;19920;-64
2021/05/11 10:49:24;;;;;;;;;;;;;;;33.38;38.69;99679.16;5089098;28;19920;-64
2021/05/11 10:52:02;;;;;;;;;;;;;;;33.42;41.31;99676.59;5080221;28;19965;-64
2021/05/11 10:54:33;;;;;;;;;;;;;;;33.78;39.80;99680.81;5073483;28;19927;-64
2021/05/11 10:57:05;;;;;;;;;;;;;;;32.46;39.81;99683.84;5069578;28;19920;-66
2021/05/11 10:59:40;;;;;;;;;;;;;;;32.55;40.39;99684.88;5049508;28;19920;-66
2021/05/11 11:05:00;;;;;;;;;;;;;;;33.22;38.63;99684.13;5058775;28;19981;-65
2021/05/11 11:07:33;;;;;;;;;;;;;;;33.76;39.25;99683.13;5073498;28;19926;-65
2021/05/11 11:10:00;;;;;;;;;;;;;;;33.36;35.97;99674.97;5073764;28;19920;-66
2021/05/11 11:12:34;;;;;;;;;;;;;;;33.02;34.40;99673.16;5073517;28;20002;-65
2021/05/11 11:15:02;;;;;;;;;;;;;;;32.79;35.41;99672.00;5073516;28;19924;-65
2021/05/11 11:17:27;;;;;;;;;;;;;;;32.91;36.23;99668.78;5055238;28;19921;-65
2021/05/11 11:19:55;;;;;;;;;;;;;;;32.76;35.38;99667.00;5073363;28;19924;-64
2021/05/11 11:25:05;;;;;;;;;;;;;;;33.16;35.33;99671.25;5055423;28;19947;-72
2021/05/11 11:27:32;;;;;;;;;;;;;;;32.73;36.26;99656.38;5073444;28;19965;-71
2021/05/11 11:30:00;;;;;;;;;;;;;;;33.00;36.75;99652.94;5072842;28;20383;-71
2021/05/11 11:32:26;;;;;;;;;;;;;;;33.39;38.77;99646.25;5073290;28;20387;-71
2021/05/11 11:34:55;;;;;;;;;;;;;;;33.24;36.61;99649.25;5072902;28;19920;-71
2021/05/11 11:37:23;;;;;;;;;;;;;;;32.76;36.08;99650.97;5073039;28;19920;-72
2021/05/11 11:39:50;;;;;;;;;;;;;;;31.94;38.87;99661.00;5073478;28;19966;-71
2021/05/11 11:42:17;;;;;;;;;;;;;;;32.24;39.22;99667.50;5073352;28;19921;-71
2021/05/11 11:44:43;;;;;;;;;;;;;;;32.88;39.55;99654.22;5072767;28;19935;-71
2021/05/11 11:47:11;;;;;;;;;;;;;;;32.66;37.81;99659.50;5073418;28;19959;-71
2021/05/11 11:49:40;;;;;;;;;;;;;;;33.17;37.12;99656.06;5054787;28;20318;-72
2021/05/11 11:52:08;;;;;;;;;;;;;;;33.11;37.15;99660.13;5073096;28;19920;-72
2021/05/11 11:54:37;;;;;;;;;;;;;;;33.90;36.62;99670.00;5072726;28;20007;-71
2021/05/11 12:00:00;;;;;;;;;;;;;;;32.93;36.92;99661.72;5074140;28;20318;-72
2021/05/11 12:02:27;;;;;;;;;;;;;;;32.44;38.33;99663.66;5092865;28;20267;-72
2021/05/11 12:04:52;;;;;;;;;;;;;;;31.73;39.95;99660.31;5092925;28;20010;-72
2021/05/11 12:07:19;;;;;;;;;;;;;;;31.69;40.38;99656.44;5092219;28;20004;-72
2021/05/11 12:09:48;;;;;;;;;;;;;;;31.59;40.70;99650.84;5092457;28;19962;-71
2021/05/11 12:12:14;;;;;;;;;;;;;;;30.97;43.43;99656.78;5092715;28;19946;-72
2021/05/11 12:14:40;;;;;;;;;;;;;;;31.59;42.67;99650.84;5092337;28;20367;-72
2021/05/11 12:17:06;;;;;;;;;;;;;;;32.43;39.77;99642.34;5092770;28;19934;-72
2021/05/11 12:19:33;;;;;;;;;;;;;;;32.80;39.35;99645.59;5091740;28;19924;-73
2021/05/11 12:22:00;;;;;;;;;;;;;;;33.43;40.11;99633.25;5051802;28;19925;-71
2021/05/11 12:24:27;;;;;;;;;;;;;;;34.27;40.41;99633.59;5052339;28;19921;-71
2021/05/11 12:26:53;;;;;;;;;;;;;;;33.95;39.17;99641.75;5051906;28;20010;-72
2021/05/11 12:29:20;;;;;;;;;;;;;;;32.66;37.81;99637.88;5052311;28;20321;-73
2021/05/11 12:31:46;;;;;;;;;;;;;;;32.59;39.00;99633.75;5051522;28;19920;-73
2021/05/11 12:34:13;;;;;;;;;;;;;;;32.76;40.98;99622.88;5051558;28;19943;-72
2021/05/11 12:36:41;;;;;;;;;;;;;;;32.65;39.20;99627.75;5051693;28;19983;-73
2021/05/11 12:39:29;;;;;;;;;;;;;;;32.62;39.42;99628.38;5051322;28;19931;-73
2021/05/11 12:42:14;;;;;;;;;;;;;;;32.09;39.64;99623.53;5051674;28;19967;-72
2021/05/11 12:44:40;;;;;;;;;;;;;;;32.54;40.50;99612.19;5051217;28;19975;-72
2021/05/11 12:47:06;;;;;;;;;;;;;;;33.32;38.22;99612.88;5049480;28;19920;-73
2021/05/11 12:49:32;;;;;;;;;;;;;;;34.28;36.16;99612.75;5051443;28;21212;-71
2021/05/11 12:52:00;;;;;;;;;;;;;;;34.44;38.42;99608.50;5050859;28;19947;-70
2021/05/11 12:54:28;;;;;;;;;;;;;;;34.24;35.16;99608.88;5051205;28;19921;-71
2021/05/11 12:57:08;;;;;;;;;;;;;;;34.56;35.28;99599.56;5051017;28;20011;-71
2021/05/11 12:59:39;;;;;;;;;;;;;;;34.98;33.31;99602.38;5058574;28;20018;-72
2021/05/11 13:02:14;;;;;;;;;;;;;;;34.62;36.25;99592.69;5053325;28;19928;-72
2021/05/11 13:21:32;;;;;;;;;;;;;;;33.81;34.56;99587.41;5062678;28;19920;-72
2021/05/11 13:26:46;;;;;;;;;;;;;;;33.13;34.66;99575.50;5061671;28;19934;-71
2021/05/11 13:29:20;;;;;;;;;;;;;;;33.53;35.02;99574.03;5070407;28;20358;-72
2021/05/11 13:31:50;;;;;;;;;;;;;;;33.66;34.72;99569.63;5058477;28;19920;-71
2021/05/11 13:34:19;;;;;;;;;;;;;;;33.15;34.83;99573.19;5068219;28;19924;-71
2021/05/11 13:36:45;;;;;;;;;;;;;;;32.67;35.51;99585.31;5058542;28;19955;-71
2021/05/11 13:39:12;;;;;;;;;;;;;;;32.75;36.21;99569.81;5050718;28;19943;-72
2021/05/11 13:41:38;;;;;;;;;;;;;;;32.92;35.78;99569.31;5061118;28;19939;-71
2021/05/11 13:44:04;;;;;;;;;;;;;;;32.58;36.35;99564.66;5070652;28;19920;-71
2021/05/11 13:46:31;;;;;;;;;;;;;;;32.66;34.61;99561.22;5053673;28;19920;-71
2021/05/11 13:48:56;;;;;;;;;;;;;;;33.27;34.10;99556.72;5050441;28;20307;-71
2021/05/11 13:51:22;;;;;;;;;;;;;;;33.84;33.93;99564.28;5051706;28;19925;-71
2021/05/11 13:53:52;;;;;;;;;;;;;;;33.57;33.63;99548.09;5050236;28;20363;-71
2021/05/11 13:56:26;;;;;;;;;;;;;;;33.71;33.30;99543.38;5052707;28;19924;-71
2021/05/11 14:01:55;;;;;;;;;;;;;;;33.34;33.27;99537.53;5032207;28;20384;-71
2021/05/11 14:04:21;;;;;;;;;;;;;;;32.33;34.89;99542.22;5058541;28;20450;-71
2021/05/11 14:06:47;;;;;;;;;;;;;;;32.80;39.26;99536.88;5053844;28;19921;-71
2021/05/11 14:09:13;;;;;;;;;;;;;;;33.79;35.42;99534.25;5053822;28;19921;-72
2021/05/11 14:11:40;;;;;;;;;;;;;;;33.87;34.79;99535.53;5070537;28;20398;-71
2021/05/11 14:14:06;;;;;;;;;;;;;;;33.99;34.52;99535.03;5039688;28;20401;-71
2021/05/11 14:16:32;;;;;;;;;;;;;;;34.74;33.95;99526.50;5053308;28;19971;-71
2021/05/11 14:18:58;;;;;;;;;;;;;;;34.74;32.21;99532.97;5057716;28;20295;-71
2021/05/11 14:21:24;;;;;;;;;;;;;;;34.49;32.30;99523.94;5050258;28;19924;-72
2021/05/11 14:23:52;;;;;;;;;;;;;;;34.63;32.65;99528.72;5064176;28;20152;-72
2021/05/11 14:26:18;;;;;;;;;;;;;;;34.62;32.89;99518.59;5053959;28;19920;-72
2021/05/11 14:28:45;;;;;;;;;;;;;;;34.34;33.09;99518.59;5054483;28;20355;-71
2021/05/11 14:31:11;;;;;;;;;;;;;;;34.46;32.37;99510.47;5054444;28;19971;-72
2021/05/11 14:33:37;;;;;;;;;;;;;;;34.95;33.07;99508.00;5054210;28;19921;-71
2021/05/11 14:36:03;;;;;;;;;;;;;;;35.03;31.91;99509.25;5054386;28;19935;-72
2021/05/11 14:38:29;;;;;;;;;;;;;;;35.29;31.00;99511.44;5054218;28;19983;-72
2021/05/11 14:41:01;;;;;;;;;;;;;;;35.53;30.50;99509.16;5054245;28;20414;-72
2021/05/11 14:43:27;;;;;;;;;;;;;;;35.95;30.43;99502.47;5054110;28;20166;-72
2021/05/11 14:45:53;;;;;;;;;;;;;;;35.91;30.08;99498.63;5054206;28;19920;-72
2021/05/11 14:48:19;;;;;;;;;;;;;;;35.67;29.72;99505.44;5054399;28;20396;-72
2021/05/11 14:50:45;;;;;;;;;;;;;;;35.36;30.17;99500.59;5056484;28;19999;-72
2021/05/11 14:53:11;;;;;;;;;;;;;;;34.97;31.41;99494.44;5073318;28;19947;-71
2021/05/11 14:55:37;;;;;;;;;;;;;;;35.28;31.42;99496.50;5073811;28;19921;-72
2021/05/11 14:58:02;;;;;;;;;;;;;;;35.63;31.93;99495.94;5073623;28;19920;-71
2021/05/11 15:00:28;;;;;;;;;;;;;;;34.65;30.60;99487.81;5073770;28;19920;-72
2021/05/11 15:02:55;;;;;;;;;;;;;;;34.06;32.89;99490.41;5073623;28;19925;-72
2021/05/11 15:05:21;;;;;;;;;;;;;;;33.89;32.46;99485.41;5069273;28;20323;-72
2021/05/11 15:07:48;;;;;;;;;;;;;;;34.48;32.73;99487.63;5072993;28;19955;-71
2021/05/11 15:10:14;;;;;;;;;;;;;;;33.60;31.18;99485.63;5073201;28;19920;-71
2021/05/11 15:12:41;;;;;;;;;;;;;;;33.19;31.71;99470.25;5073632;28;19920;-71
2021/05/11 15:15:07;;;;;;;;;;;;;;;34.18;31.20;99476.69;5072806;28;19924;-70
2021/05/11 15:20:33;;;;;;;;;;;;;;;33.06;31.97;99469.09;5031308;28;20296;-71
2021/05/11 15:22:59;;;;;;;;;;;;;;;33.63;32.72;99465.31;5031553;28;19932;-71
2021/05/11 15:25:27;;;;;;;;;;;;;;;33.88;30.48;99467.69;5049740;28;19983;-70
2021/05/11 15:27:54;;;;;;;;;;;;;;;33.35;31.99;99470.88;5073426;28;19943;-71
2021/05/11 15:30:20;;;;;;;;;;;;;;;32.94;32.75;99474.31;5073624;28;20019;-71
2021/05/11 15:32:49;;;;;;;;;;;;;;;32.87;33.37;99478.34;5072005;28;19925;-71
2021/05/11 15:35:15;;;;;;;;;;;;;;;33.49;34.53;99470.94;5069718;28;19921;-70
2021/05/11 15:37:43;;;;;;;;;;;;;;;33.94;32.39;99474.06;5073099;28;19994;-70
2021/05/11 15:40:09;;;;;;;;;;;;;;;34.11;31.51;99470.59;5073444;28;20395;-71
2021/05/11 15:42:36;;;;;;;;;;;;;;;33.70;33.34;99477.00;5050750;28;20006;-71
2021/05/11 15:45:01;;;;;;;;;;;;;;;33.94;31.58;99465.63;5052720;28;19932;-71
2021/05/11 15:47:27;;;;;;;;;;;;;;;33.77;33.92;99471.81;5053337;28;19936;-71
2021/05/11 15:49:53;;;;;;;;;;;;;;;32.87;36.68;99467.13;5052654;28;20047;-71
2021/05/11 15:52:19;;;;;;;;;;;;;;;32.27;38.57;99473.25;5053141;28;19920;-71
2021/05/11 15:54:47;;;;;;;;;;;;;;;31.97;40.19;99480.84;5052852;28;19921;-71